sensor_id;sensor_type;location;lat;lon;timestamp;P1;durP1;ratioP1;P2;durP2;ratioP2
14686;SDS011;7431;49.440;11.084;2023-07-09T00:01:17;6.38;;;5.75;;
14686;SDS011;7431;49.440;11.084;2023-07-09T00:03:43;7.13;;;5.55;;
14686;SDS011;7431;49.440;11.084;2023-07-09T00:06:09;6.85;;;6.00;;
14686;SDS011;7431;49.440;11.084;2023-07-09T00:08:36;6.38;;;5.72;;
14686;SDS011;7431;49.440;11.084;2023-07-09T00:11:04;8.18;;;6.07;;
14686;SDS011;7431;49.440;11.084;2023-07-09T00:13:29;6.50;;;5.57;;
14686;SDS011;7431;49.440;11.084;2023-07-09T00:15:57;7.20;;;6.32;;
14686;SDS011;7431;49.440;11.084;2023-07-09T00:18:24;8.10;;;5.47;;
14686;SDS011;7431;49.440;11.084;2023-07-09T00:20:50;7.88;;;5.95;;
14686;SDS011;7431;49.440;11.084;2023-07-09T00:23:15;8.48;;;5.80;;
14686;SDS011;7431;49.440;11.084;2023-07-09T00:25:45;8.68;;;6.63;;
14686;SDS011;7431;49.440;11.084;2023-07-09T00:28:12;6.53;;;5.28;;
14686;SDS011;7431;49.440;11.084;2023-07-09T00:30:38;6.53;;;5.93;;
14686;SDS011;7431;49.440;11.084;2023-07-09T00:33:04;6.22;;;5.63;;
14686;SDS011;7431;49.440;11.084;2023-07-09T00:35:30;6.13;;;5.40;;
14686;SDS011;7431;49.440;11.084;2023-07-09T00:37:56;6.45;;;5.30;;
14686;SDS011;7431;49.440;11.084;2023-07-09T00:40:25;9.20;;;5.72;;
14686;SDS011;7431;49.440;11.084;2023-07-09T00:42:52;6.93;;;5.68;;
14686;SDS011;7431;49.440;11.084;2023-07-09T00:45:20;7.30;;;5.60;;
14686;SDS011;7431;49.440;11.084;2023-07-09T00:48:00;6.40;;;5.00;;
14686;SDS011;7431;49.440;11.084;2023-07-09T00:50:37;6.82;;;6.13;;
14686;SDS011;7431;49.440;11.084;2023-07-09T00:53:49;6.03;;;5.40;;
14686;SDS011;7431;49.440;11.084;2023-07-09T00:55:57;9.60;;;5.43;;
14686;SDS011;7431;49.440;11.084;2023-07-09T00:58:25;7.85;;;6.22;;
14686;SDS011;7431;49.440;11.084;2023-07-09T01:00:54;6.90;;;5.60;;
14686;SDS011;7431;49.440;11.084;2023-07-09T01:05:47;8.77;;;6.18;;
14686;SDS011;7431;49.440;11.084;2023-07-09T01:08:16;7.60;;;5.47;;
14686;SDS011;7431;49.440;11.084;2023-07-09T01:10:42;6.47;;;5.00;;
14686;SDS011;7431;49.440;11.084;2023-07-09T01:13:08;6.63;;;5.55;;
14686;SDS011;7431;49.440;11.084;2023-07-09T01:15:35;7.07;;;5.88;;
14686;SDS011;7431;49.440;11.084;2023-07-09T01:18:02;6.45;;;5.72;;
14686;SDS011;7431;49.440;11.084;2023-07-09T01:20:28;6.75;;;5.53;;
14686;SDS011;7431;49.440;11.084;2023-07-09T01:22:55;7.88;;;5.90;;
14686;SDS011;7431;49.440;11.084;2023-07-09T01:25:25;5.82;;;5.22;;
14686;SDS011;7431;49.440;11.084;2023-07-09T01:27:53;6.40;;;5.70;;
14686;SDS011;7431;49.440;11.084;2023-07-09T01:30:22;6.72;;;6.05;;
14686;SDS011;7431;49.440;11.084;2023-07-09T01:32:48;5.95;;;5.18;;
14686;SDS011;7431;49.440;11.084;2023-07-09T01:35:16;6.82;;;5.22;;
14686;SDS011;7431;49.440;11.084;2023-07-09T01:37:43;7.00;;;5.80;;
14686;SDS011;7431;49.440;11.084;2023-07-09T01:40:10;6.65;;;5.60;;
14686;SDS011;7431;49.440;11.084;2023-07-09T01:42:36;8.13;;;5.95;;
14686;SDS011;7431;49.440;11.084;2023-07-09T01:45:06;7.30;;;6.10;;
14686;SDS011;7431;49.440;11.084;2023-07-09T01:47:32;7.13;;;6.40;;
14686;SDS011;7431;49.440;11.084;2023-07-09T01:49:58;7.88;;;5.90;;
14686;SDS011;7431;49.440;11.084;2023-07-09T01:52:25;9.15;;;6.45;;
14686;SDS011;7431;49.440;11.084;2023-07-09T01:54:52;7.60;;;5.80;;
14686;SDS011;7431;49.440;11.084;2023-07-09T01:59:44;8.57;;;5.85;;
14686;SDS011;7431;49.440;11.084;2023-07-09T02:02:11;7.00;;;6.18;;
14686;SDS011;7431;49.440;11.084;2023-07-09T02:04:44;6.82;;;5.78;;
14686;SDS011;7431;49.440;11.084;2023-07-09T02:07:10;7.38;;;5.68;;
14686;SDS011;7431;49.440;11.084;2023-07-09T02:09:36;8.02;;;5.38;;
14686;SDS011;7431;49.440;11.084;2023-07-09T02:12:02;7.32;;;6.35;;
14686;SDS011;7431;49.440;11.084;2023-07-09T02:14:28;7.30;;;5.80;;
14686;SDS011;7431;49.440;11.084;2023-07-09T02:16:54;6.65;;;5.93;;
14686;SDS011;7431;49.440;11.084;2023-07-09T02:19:20;8.48;;;6.07;;
14686;SDS011;7431;49.440;11.084;2023-07-09T02:21:46;8.02;;;6.20;;
14686;SDS011;7431;49.440;11.084;2023-07-09T02:24:12;7.38;;;5.72;;
14686;SDS011;7431;49.440;11.084;2023-07-09T02:26:38;9.95;;;6.30;;
14686;SDS011;7431;49.440;11.084;2023-07-09T02:29:04;10.23;;;5.80;;
14686;SDS011;7431;49.440;11.084;2023-07-09T02:31:30;8.65;;;5.95;;
14686;SDS011;7431;49.440;11.084;2023-07-09T02:33:58;8.23;;;6.15;;
14686;SDS011;7431;49.440;11.084;2023-07-09T02:36:24;6.80;;;6.10;;
14686;SDS011;7431;49.440;11.084;2023-07-09T02:38:50;6.68;;;5.82;;
14686;SDS011;7431;49.440;11.084;2023-07-09T02:41:16;7.13;;;5.50;;
14686;SDS011;7431;49.440;11.084;2023-07-09T02:43:42;7.13;;;6.28;;
14686;SDS011;7431;49.440;11.084;2023-07-09T02:46:08;9.07;;;6.28;;
14686;SDS011;7431;49.440;11.084;2023-07-09T02:48:34;8.00;;;5.88;;
14686;SDS011;7431;49.440;11.084;2023-07-09T02:51:00;6.50;;;5.85;;
14686;SDS011;7431;49.440;11.084;2023-07-09T02:53:27;6.45;;;5.78;;
14686;SDS011;7431;49.440;11.084;2023-07-09T02:55:53;6.22;;;5.63;;
14686;SDS011;7431;49.440;11.084;2023-07-09T02:58:19;9.07;;;6.20;;
14686;SDS011;7431;49.440;11.084;2023-07-09T03:00:48;7.30;;;6.18;;
14686;SDS011;7431;49.440;11.084;2023-07-09T03:03:17;7.20;;;5.93;;
14686;SDS011;7431;49.440;11.084;2023-07-09T03:05:44;6.72;;;5.55;;
14686;SDS011;7431;49.440;11.084;2023-07-09T03:08:10;8.73;;;6.50;;
14686;SDS011;7431;49.440;11.084;2023-07-09T03:10:36;6.57;;;5.97;;
14686;SDS011;7431;49.440;11.084;2023-07-09T03:13:02;7.95;;;5.68;;
14686;SDS011;7431;49.440;11.084;2023-07-09T03:15:28;6.15;;;5.47;;
14686;SDS011;7431;49.440;11.084;2023-07-09T03:17:54;7.47;;;6.00;;
14686;SDS011;7431;49.440;11.084;2023-07-09T03:20:20;5.97;;;5.35;;
14686;SDS011;7431;49.440;11.084;2023-07-09T03:22:46;8.68;;;6.20;;
14686;SDS011;7431;49.440;11.084;2023-07-09T03:25:12;7.15;;;5.78;;
14686;SDS011;7431;49.440;11.084;2023-07-09T03:27:39;6.47;;;5.85;;
14686;SDS011;7431;49.440;11.084;2023-07-09T03:30:05;7.47;;;6.00;;
14686;SDS011;7431;49.440;11.084;2023-07-09T03:32:31;6.20;;;5.57;;
14686;SDS011;7431;49.440;11.084;2023-07-09T03:34:57;6.25;;;5.65;;
14686;SDS011;7431;49.440;11.084;2023-07-09T03:37:23;6.45;;;5.85;;
14686;SDS011;7431;49.440;11.084;2023-07-09T03:39:49;7.15;;;5.90;;
14686;SDS011;7431;49.440;11.084;2023-07-09T03:42:15;6.30;;;5.30;;
14686;SDS011;7431;49.440;11.084;2023-07-09T03:44:42;6.88;;;5.53;;
14686;SDS011;7431;49.440;11.084;2023-07-09T03:47:08;8.35;;;6.25;;
14686;SDS011;7431;49.440;11.084;2023-07-09T03:49:34;8.15;;;5.88;;
14686;SDS011;7431;49.440;11.084;2023-07-09T03:52:00;6.13;;;5.47;;
14686;SDS011;7431;49.440;11.084;2023-07-09T03:54:26;8.52;;;5.95;;
14686;SDS011;7431;49.440;11.084;2023-07-09T03:56:52;7.22;;;5.65;;
14686;SDS011;7431;49.440;11.084;2023-07-09T03:59:18;8.07;;;5.80;;
14686;SDS011;7431;49.440;11.084;2023-07-09T04:01:44;6.53;;;5.72;;
14686;SDS011;7431;49.440;11.084;2023-07-09T04:04:14;6.57;;;5.97;;
14686;SDS011;7431;49.440;11.084;2023-07-09T04:06:40;7.95;;;5.72;;
14686;SDS011;7431;49.440;11.084;2023-07-09T04:09:06;7.05;;;5.88;;
14686;SDS011;7431;49.440;11.084;2023-07-09T04:11:32;10.63;;;4.88;;
14686;SDS011;7431;49.440;11.084;2023-07-09T04:13:58;6.18;;;5.57;;
14686;SDS011;7431;49.440;11.084;2023-07-09T04:16:24;6.35;;;5.53;;
14686;SDS011;7431;49.440;11.084;2023-07-09T04:18:50;6.70;;;5.90;;
14686;SDS011;7431;49.440;11.084;2023-07-09T04:21:16;7.85;;;6.15;;
14686;SDS011;7431;49.440;11.084;2023-07-09T04:23:43;6.85;;;5.60;;
14686;SDS011;7431;49.440;11.084;2023-07-09T04:26:12;6.90;;;5.80;;
14686;SDS011;7431;49.440;11.084;2023-07-09T04:28:38;6.25;;;5.65;;
14686;SDS011;7431;49.440;11.084;2023-07-09T04:31:04;6.22;;;5.63;;
14686;SDS011;7431;49.440;11.084;2023-07-09T04:33:30;6.97;;;5.65;;
14686;SDS011;7431;49.440;11.084;2023-07-09T04:35:57;5.97;;;5.40;;
14686;SDS011;7431;49.440;11.084;2023-07-09T04:38:23;7.35;;;5.85;;
14686;SDS011;7431;49.440;11.084;2023-07-09T04:40:49;6.57;;;5.97;;
14686;SDS011;7431;49.440;11.084;2023-07-09T04:43:15;7.68;;;5.63;;
14686;SDS011;7431;49.440;11.084;2023-07-09T04:45:41;7.18;;;6.00;;
14686;SDS011;7431;49.440;11.084;2023-07-09T04:48:07;7.93;;;5.82;;
14686;SDS011;7431;49.440;11.084;2023-07-09T04:50:33;7.18;;;5.68;;
14686;SDS011;7431;49.440;11.084;2023-07-09T04:52:59;7.07;;;5.63;;
14686;SDS011;7431;49.440;11.084;2023-07-09T04:55:26;6.88;;;5.60;;
14686;SDS011;7431;49.440;11.084;2023-07-09T04:57:52;7.22;;;5.82;;
14686;SDS011;7431;49.440;11.084;2023-07-09T05:00:18;8.05;;;6.40;;
14686;SDS011;7431;49.440;11.084;2023-07-09T05:02:44;7.00;;;5.50;;
14686;SDS011;7431;49.440;11.084;2023-07-09T05:05:10;7.70;;;6.10;;
14686;SDS011;7431;49.440;11.084;2023-07-09T05:07:37;7.15;;;5.75;;
14686;SDS011;7431;49.440;11.084;2023-07-09T05:10:03;7.32;;;5.97;;
14686;SDS011;7431;49.440;11.084;2023-07-09T05:12:29;5.95;;;5.28;;
14686;SDS011;7431;49.440;11.084;2023-07-09T05:14:55;6.95;;;5.63;;
14686;SDS011;7431;49.440;11.084;2023-07-09T05:17:21;6.18;;;5.55;;
14686;SDS011;7431;49.440;11.084;2023-07-09T05:19:48;8.35;;;5.40;;
14686;SDS011;7431;49.440;11.084;2023-07-09T05:22:14;7.57;;;5.72;;
14686;SDS011;7431;49.440;11.084;2023-07-09T05:24:40;7.03;;;5.80;;
14686;SDS011;7431;49.440;11.084;2023-07-09T05:27:06;6.72;;;5.32;;
14686;SDS011;7431;49.440;11.084;2023-07-09T05:29:33;5.95;;;5.40;;
14686;SDS011;7431;49.440;11.084;2023-07-09T05:31:59;5.93;;;5.25;;
14686;SDS011;7431;49.440;11.084;2023-07-09T05:34:25;6.18;;;5.20;;
14686;SDS011;7431;49.440;11.084;2023-07-09T05:36:51;5.68;;;5.13;;
14686;SDS011;7431;49.440;11.084;2023-07-09T05:39:17;6.35;;;5.47;;
14686;SDS011;7431;49.440;11.084;2023-07-09T05:41:44;8.23;;;5.53;;
14686;SDS011;7431;49.440;11.084;2023-07-09T05:44:10;8.50;;;5.32;;
14686;SDS011;7431;49.440;11.084;2023-07-09T05:46:36;6.20;;;4.88;;
14686;SDS011;7431;49.440;11.084;2023-07-09T05:49:05;6.82;;;5.07;;
14686;SDS011;7431;49.440;11.084;2023-07-09T05:51:32;6.20;;;5.60;;
14686;SDS011;7431;49.440;11.084;2023-07-09T05:53:59;5.93;;;5.32;;
14686;SDS011;7431;49.440;11.084;2023-07-09T05:56:25;6.75;;;5.45;;
14686;SDS011;7431;49.440;11.084;2023-07-09T05:58:51;5.22;;;4.72;;
14686;SDS011;7431;49.440;11.084;2023-07-09T06:01:17;7.15;;;4.90;;
14686;SDS011;7431;49.440;11.084;2023-07-09T06:03:45;6.65;;;5.15;;
14686;SDS011;7431;49.440;11.084;2023-07-09T06:06:11;6.65;;;5.22;;
14686;SDS011;7431;49.440;11.084;2023-07-09T06:08:37;5.15;;;4.68;;
14686;SDS011;7431;49.440;11.084;2023-07-09T06:11:04;6.05;;;4.60;;
14686;SDS011;7431;49.440;11.084;2023-07-09T06:13:30;6.30;;;4.80;;
14686;SDS011;7431;49.440;11.084;2023-07-09T06:15:57;6.00;;;5.32;;
14686;SDS011;7431;49.440;11.084;2023-07-09T06:18:24;5.40;;;4.65;;
14686;SDS011;7431;49.440;11.084;2023-07-09T06:20:51;6.53;;;4.57;;
14686;SDS011;7431;49.440;11.084;2023-07-09T06:23:17;5.72;;;4.97;;
14686;SDS011;7431;49.440;11.084;2023-07-09T06:25:44;5.78;;;4.90;;
14686;SDS011;7431;49.440;11.084;2023-07-09T06:28:13;5.22;;;4.72;;
14686;SDS011;7431;49.440;11.084;2023-07-09T06:30:39;6.00;;;4.65;;
14686;SDS011;7431;49.440;11.084;2023-07-09T06:33:05;5.82;;;5.00;;
14686;SDS011;7431;49.440;11.084;2023-07-09T06:35:31;5.40;;;4.90;;
14686;SDS011;7431;49.440;11.084;2023-07-09T06:37:57;5.43;;;4.93;;
14686;SDS011;7431;49.440;11.084;2023-07-09T06:40:23;5.03;;;4.53;;
14686;SDS011;7431;49.440;11.084;2023-07-09T06:42:50;6.13;;;5.13;;
14686;SDS011;7431;49.440;11.084;2023-07-09T06:45:16;5.75;;;5.00;;
14686;SDS011;7431;49.440;11.084;2023-07-09T06:47:42;5.20;;;4.70;;
14686;SDS011;7431;49.440;11.084;2023-07-09T06:50:08;4.97;;;4.53;;
14686;SDS011;7431;49.440;11.084;2023-07-09T06:52:34;6.88;;;4.97;;
14686;SDS011;7431;49.440;11.084;2023-07-09T06:55:00;6.60;;;4.90;;
14686;SDS011;7431;49.440;11.084;2023-07-09T06:57:26;5.03;;;4.53;;
14686;SDS011;7431;49.440;11.084;2023-07-09T06:59:52;4.97;;;4.47;;
14686;SDS011;7431;49.440;11.084;2023-07-09T07:02:18;4.82;;;4.32;;
14686;SDS011;7431;49.440;11.084;2023-07-09T07:04:44;4.45;;;3.85;;
14686;SDS011;7431;49.440;11.084;2023-07-09T07:07:10;6.00;;;3.90;;
14686;SDS011;7431;49.440;11.084;2023-07-09T07:09:36;4.43;;;4.03;;
14686;SDS011;7431;49.440;11.084;2023-07-09T07:12:02;5.15;;;4.53;;
14686;SDS011;7431;49.440;11.084;2023-07-09T07:14:28;4.18;;;3.75;;
14686;SDS011;7431;49.440;11.084;2023-07-09T07:16:56;4.78;;;4.00;;
14686;SDS011;7431;49.440;11.084;2023-07-09T07:19:26;4.82;;;3.92;;
14686;SDS011;7431;49.440;11.084;2023-07-09T07:21:52;4.50;;;3.95;;
14686;SDS011;7431;49.440;11.084;2023-07-09T07:24:18;4.45;;;4.05;;
14686;SDS011;7431;49.440;11.084;2023-07-09T07:26:44;4.95;;;4.43;;
14686;SDS011;7431;49.440;11.084;2023-07-09T07:29:10;4.50;;;4.00;;
14686;SDS011;7431;49.440;11.084;2023-07-09T07:31:36;4.78;;;3.90;;
14686;SDS011;7431;49.440;11.084;2023-07-09T07:34:02;4.35;;;3.95;;
14686;SDS011;7431;49.440;11.084;2023-07-09T07:36:28;4.10;;;3.67;;
14686;SDS011;7431;49.440;11.084;2023-07-09T07:38:54;4.35;;;3.80;;
14686;SDS011;7431;49.440;11.084;2023-07-09T07:41:20;4.25;;;3.85;;
14686;SDS011;7431;49.440;11.084;2023-07-09T07:43:46;4.75;;;3.88;;
14686;SDS011;7431;49.440;11.084;2023-07-09T07:46:12;4.43;;;3.45;;
14686;SDS011;7431;49.440;11.084;2023-07-09T07:48:38;3.67;;;3.35;;
14686;SDS011;7431;49.440;11.084;2023-07-09T07:51:04;3.92;;;3.33;;
14686;SDS011;7431;49.440;11.084;2023-07-09T07:53:30;4.30;;;3.85;;
14686;SDS011;7431;49.440;11.084;2023-07-09T07:55:57;3.90;;;3.50;;
14686;SDS011;7431;49.440;11.084;2023-07-09T07:58:23;3.90;;;3.50;;
14686;SDS011;7431;49.440;11.084;2023-07-09T08:00:49;3.42;;;3.13;;
14686;SDS011;7431;49.440;11.084;2023-07-09T08:03:15;4.65;;;3.47;;
14686;SDS011;7431;49.440;11.084;2023-07-09T08:05:41;3.58;;;3.13;;
14686;SDS011;7431;49.440;11.084;2023-07-09T08:08:07;3.50;;;3.15;;
14686;SDS011;7431;49.440;11.084;2023-07-09T08:10:33;3.53;;;3.03;;
14686;SDS011;7431;49.440;11.084;2023-07-09T08:12:59;3.55;;;3.25;;
14686;SDS011;7431;49.440;11.084;2023-07-09T08:15:25;3.55;;;3.20;;
14686;SDS011;7431;49.440;11.084;2023-07-09T08:17:51;3.58;;;3.20;;
14686;SDS011;7431;49.440;11.084;2023-07-09T08:20:18;3.17;;;2.78;;
14686;SDS011;7431;49.440;11.084;2023-07-09T08:22:44;3.42;;;3.10;;
14686;SDS011;7431;49.440;11.084;2023-07-09T08:25:11;5.15;;;2.95;;
14686;SDS011;7431;49.440;11.084;2023-07-09T08:27:37;3.92;;;3.08;;
14686;SDS011;7431;49.440;11.084;2023-07-09T08:30:03;3.90;;;2.97;;
14686;SDS011;7431;49.440;11.084;2023-07-09T08:32:29;3.55;;;2.95;;
14686;SDS011;7431;49.440;11.084;2023-07-09T08:34:55;4.03;;;3.25;;
14686;SDS011;7431;49.440;11.084;2023-07-09T08:37:21;3.08;;;2.78;;
14686;SDS011;7431;49.440;11.084;2023-07-09T08:39:48;3.05;;;2.60;;
14686;SDS011;7431;49.440;11.084;2023-07-09T08:42:15;3.42;;;2.50;;
14686;SDS011;7431;49.440;11.084;2023-07-09T08:47:46;3.17;;;2.50;;
14686;SDS011;7431;49.440;11.084;2023-07-09T08:50:21;3.92;;;2.60;;
14686;SDS011;7431;49.440;11.084;2023-07-09T08:52:48;4.13;;;3.05;;
14686;SDS011;7431;49.440;11.084;2023-07-09T08:55:18;3.53;;;2.60;;
14686;SDS011;7431;49.440;11.084;2023-07-09T08:57:47;2.85;;;2.40;;
14686;SDS011;7431;49.440;11.084;2023-07-09T09:00:16;4.88;;;2.70;;
14686;SDS011;7431;49.440;11.084;2023-07-09T09:05:16;4.90;;;2.60;;
14686;SDS011;7431;49.440;11.084;2023-07-09T09:07:43;4.93;;;2.88;;
14686;SDS011;7431;49.440;11.084;2023-07-09T09:10:11;2.70;;;2.50;;
14686;SDS011;7431;49.440;11.084;2023-07-09T09:12:52;3.00;;;2.70;;
14686;SDS011;7431;49.440;11.084;2023-07-09T09:15:21;3.60;;;3.10;;
14686;SDS011;7431;49.440;11.084;2023-07-09T09:17:48;4.20;;;3.25;;
14686;SDS011;7431;49.440;11.084;2023-07-09T09:20:20;2.83;;;2.60;;
14686;SDS011;7431;49.440;11.084;2023-07-09T09:22:48;4.22;;;2.80;;
14686;SDS011;7431;49.440;11.084;2023-07-09T09:25:18;4.22;;;2.83;;
14686;SDS011;7431;49.440;11.084;2023-07-09T09:27:46;4.80;;;3.22;;
14686;SDS011;7431;49.440;11.084;2023-07-09T09:30:17;3.25;;;2.88;;
14686;SDS011;7431;49.440;11.084;2023-07-09T09:37:54;4.57;;;3.13;;
14686;SDS011;7431;49.440;11.084;2023-07-09T09:40:21;3.75;;;2.80;;
14686;SDS011;7431;49.440;11.084;2023-07-09T09:42:49;4.63;;;3.22;;
14686;SDS011;7431;49.440;11.084;2023-07-09T09:45:16;4.10;;;3.25;;
14686;SDS011;7431;49.440;11.084;2023-07-09T09:47:43;3.88;;;3.40;;
14686;SDS011;7431;49.440;11.084;2023-07-09T09:50:13;3.55;;;3.22;;
14686;SDS011;7431;49.440;11.084;2023-07-09T09:52:39;3.80;;;3.40;;
14686;SDS011;7431;49.440;11.084;2023-07-09T09:55:10;4.65;;;3.70;;
14686;SDS011;7431;49.440;11.084;2023-07-09T09:57:37;4.38;;;3.22;;
14686;SDS011;7431;49.440;11.084;2023-07-09T10:00:03;3.95;;;3.55;;
14686;SDS011;7431;49.440;11.084;2023-07-09T10:02:37;4.72;;;3.22;;
14686;SDS011;7431;49.440;11.084;2023-07-09T10:05:10;4.13;;;3.25;;
14686;SDS011;7431;49.440;11.084;2023-07-09T10:07:38;4.25;;;2.70;;
14686;SDS011;7431;49.440;11.084;2023-07-09T10:10:09;4.68;;;3.00;;
14686;SDS011;7431;49.440;11.084;2023-07-09T10:12:44;6.68;;;2.97;;
14686;SDS011;7431;49.440;11.084;2023-07-09T10:17:57;3.40;;;2.83;;
14686;SDS011;7431;49.440;11.084;2023-07-09T10:20:38;3.08;;;2.63;;
14686;SDS011;7431;49.440;11.084;2023-07-09T10:25:43;6.85;;;3.50;;
14686;SDS011;7431;49.440;11.084;2023-07-09T10:30:42;6.07;;;3.28;;
14686;SDS011;7431;49.440;11.084;2023-07-09T10:33:12;3.15;;;2.80;;
14686;SDS011;7431;49.440;11.084;2023-07-09T10:35:47;3.85;;;2.83;;
14686;SDS011;7431;49.440;11.084;2023-07-09T10:40:55;5.35;;;3.47;;
14686;SDS011;7431;49.440;11.084;2023-07-09T10:46:02;5.28;;;3.17;;
14686;SDS011;7431;49.440;11.084;2023-07-09T10:50:55;4.03;;;3.00;;
14686;SDS011;7431;49.440;11.084;2023-07-09T10:55:52;3.85;;;3.15;;
14686;SDS011;7431;49.440;11.084;2023-07-09T10:58:36;4.00;;;3.10;;
14686;SDS011;7431;49.440;11.084;2023-07-09T11:01:03;6.05;;;2.92;;
14686;SDS011;7431;49.440;11.084;2023-07-09T11:03:50;5.50;;;3.25;;
14686;SDS011;7431;49.440;11.084;2023-07-09T11:06:24;6.07;;;3.40;;
14686;SDS011;7431;49.440;11.084;2023-07-09T11:08:53;3.85;;;3.25;;
14686;SDS011;7431;49.440;11.084;2023-07-09T11:11:25;4.25;;;3.67;;
14686;SDS011;7431;49.440;11.084;2023-07-09T11:13:55;5.28;;;3.60;;
14686;SDS011;7431;49.440;11.084;2023-07-09T11:16:27;7.68;;;3.97;;
14686;SDS011;7431;49.440;11.084;2023-07-09T11:18:55;4.90;;;3.83;;
14686;SDS011;7431;49.440;11.084;2023-07-09T11:21:22;3.95;;;3.33;;
14686;SDS011;7431;49.440;11.084;2023-07-09T11:28:54;5.47;;;3.45;;
14686;SDS011;7431;49.440;11.084;2023-07-09T11:33:49;4.00;;;3.30;;
14686;SDS011;7431;49.440;11.084;2023-07-09T11:36:28;4.45;;;3.42;;
14686;SDS011;7431;49.440;11.084;2023-07-09T11:38:55;4.28;;;3.55;;
14686;SDS011;7431;49.440;11.084;2023-07-09T11:41:29;4.72;;;3.10;;
14686;SDS011;7431;49.440;11.084;2023-07-09T11:46:36;3.70;;;3.17;;
14686;SDS011;7431;49.440;11.084;2023-07-09T11:49:06;4.47;;;3.25;;
14686;SDS011;7431;49.440;11.084;2023-07-09T11:51:46;5.75;;;3.40;;
14686;SDS011;7431;49.440;11.084;2023-07-09T11:54:14;4.63;;;3.45;;
14686;SDS011;7431;49.440;11.084;2023-07-09T11:56:41;5.90;;;3.45;;
14686;SDS011;7431;49.440;11.084;2023-07-09T11:59:07;5.78;;;3.38;;
14686;SDS011;7431;49.440;11.084;2023-07-09T12:01:42;4.82;;;3.63;;
14686;SDS011;7431;49.440;11.084;2023-07-09T12:04:18;4.45;;;3.33;;
14686;SDS011;7431;49.440;11.084;2023-07-09T12:06:45;4.45;;;3.05;;
14686;SDS011;7431;49.440;11.084;2023-07-09T12:09:16;4.45;;;3.70;;
14686;SDS011;7431;49.440;11.084;2023-07-09T12:11:49;4.93;;;4.28;;
14686;SDS011;7431;49.440;11.084;2023-07-09T12:14:16;3.75;;;3.08;;
14686;SDS011;7431;49.440;11.084;2023-07-09T12:16:44;4.63;;;3.17;;
14686;SDS011;7431;49.440;11.084;2023-07-09T12:19:10;3.38;;;2.92;;
14686;SDS011;7431;49.440;11.084;2023-07-09T12:21:37;4.60;;;3.05;;
14686;SDS011;7431;49.440;11.084;2023-07-09T12:24:12;4.72;;;3.28;;
14686;SDS011;7431;49.440;11.084;2023-07-09T12:26:42;5.38;;;3.40;;
14686;SDS011;7431;49.440;11.084;2023-07-09T12:29:08;3.38;;;2.85;;
14686;SDS011;7431;49.440;11.084;2023-07-09T12:31:35;4.85;;;3.30;;
14686;SDS011;7431;49.440;11.084;2023-07-09T12:34:01;5.30;;;3.25;;
14686;SDS011;7431;49.440;11.084;2023-07-09T12:36:28;3.20;;;2.85;;
14686;SDS011;7431;49.440;11.084;2023-07-09T12:39:00;3.70;;;3.15;;
14686;SDS011;7431;49.440;11.084;2023-07-09T12:41:40;3.58;;;3.20;;
14686;SDS011;7431;49.440;11.084;2023-07-09T12:44:25;4.05;;;2.90;;
14686;SDS011;7431;49.440;11.084;2023-07-09T12:46:52;4.07;;;3.35;;
14686;SDS011;7431;49.440;11.084;2023-07-09T12:49:23;4.47;;;3.47;;
14686;SDS011;7431;49.440;11.084;2023-07-09T12:51:49;5.95;;;3.40;;
14686;SDS011;7431;49.440;11.084;2023-07-09T12:54:17;6.05;;;3.83;;
14686;SDS011;7431;49.440;11.084;2023-07-09T12:56:43;3.85;;;2.97;;
14686;SDS011;7431;49.440;11.084;2023-07-09T12:59:17;4.40;;;3.28;;
14686;SDS011;7431;49.440;11.084;2023-07-09T13:01:47;4.53;;;3.40;;
14686;SDS011;7431;49.440;11.084;2023-07-09T13:04:13;4.50;;;3.25;;
14686;SDS011;7431;49.440;11.084;2023-07-09T13:06:39;7.90;;;3.13;;
14686;SDS011;7431;49.440;11.084;2023-07-09T13:09:11;5.63;;;3.28;;
14686;SDS011;7431;49.440;11.084;2023-07-09T13:11:39;5.95;;;3.33;;
14686;SDS011;7431;49.440;11.084;2023-07-09T13:14:11;4.32;;;3.17;;
14686;SDS011;7431;49.440;11.084;2023-07-09T13:16:39;5.78;;;3.38;;
14686;SDS011;7431;49.440;11.084;2023-07-09T13:19:05;6.35;;;3.70;;
14686;SDS011;7431;49.440;11.084;2023-07-09T13:21:31;4.95;;;3.33;;
14686;SDS011;7431;49.440;11.084;2023-07-09T13:23:57;4.07;;;2.97;;
14686;SDS011;7431;49.440;11.084;2023-07-09T13:26:24;3.50;;;3.20;;
14686;SDS011;7431;49.440;11.084;2023-07-09T13:28:50;4.63;;;3.53;;
14686;SDS011;7431;49.440;11.084;2023-07-09T13:31:17;7.05;;;2.97;;
14686;SDS011;7431;49.440;11.084;2023-07-09T13:33:49;4.68;;;2.75;;
14686;SDS011;7431;49.440;11.084;2023-07-09T13:36:15;5.00;;;2.85;;
14686;SDS011;7431;49.440;11.084;2023-07-09T13:38:41;4.18;;;3.33;;
14686;SDS011;7431;49.440;11.084;2023-07-09T13:41:12;5.53;;;3.10;;
14686;SDS011;7431;49.440;11.084;2023-07-09T13:43:41;3.45;;;2.90;;
14686;SDS011;7431;49.440;11.084;2023-07-09T13:46:07;4.45;;;2.95;;
14686;SDS011;7431;49.440;11.084;2023-07-09T13:48:35;3.58;;;3.20;;
14686;SDS011;7431;49.440;11.084;2023-07-09T13:51:03;6.22;;;3.65;;
14686;SDS011;7431;49.440;11.084;2023-07-09T13:53:32;5.82;;;3.20;;
14686;SDS011;7431;49.440;11.084;2023-07-09T13:55:58;6.07;;;3.30;;
14686;SDS011;7431;49.440;11.084;2023-07-09T13:58:25;4.45;;;3.45;;
14686;SDS011;7431;49.440;11.084;2023-07-09T14:00:56;3.38;;;3.00;;
14686;SDS011;7431;49.440;11.084;2023-07-09T14:03:30;4.10;;;3.17;;
14686;SDS011;7431;49.440;11.084;2023-07-09T14:05:56;4.15;;;2.95;;
14686;SDS011;7431;49.440;11.084;2023-07-09T14:08:22;3.60;;;3.30;;
14686;SDS011;7431;49.440;11.084;2023-07-09T14:10:48;5.00;;;3.50;;
14686;SDS011;7431;49.440;11.084;2023-07-09T14:13:16;3.95;;;3.28;;
14686;SDS011;7431;49.440;11.084;2023-07-09T14:15:42;3.63;;;3.22;;
14686;SDS011;7431;49.440;11.084;2023-07-09T14:18:13;3.72;;;3.35;;
14686;SDS011;7431;49.440;11.084;2023-07-09T14:20:39;7.20;;;4.40;;
14686;SDS011;7431;49.440;11.084;2023-07-09T14:23:07;5.57;;;4.82;;
14686;SDS011;7431;49.440;11.084;2023-07-09T14:25:33;7.13;;;3.92;;
14686;SDS011;7431;49.440;11.084;2023-07-09T14:27:59;4.95;;;4.15;;
14686;SDS011;7431;49.440;11.084;2023-07-09T14:30:25;4.55;;;3.17;;
14686;SDS011;7431;49.440;11.084;2023-07-09T14:32:52;3.85;;;3.03;;
14686;SDS011;7431;49.440;11.084;2023-07-09T14:35:19;3.92;;;3.28;;
14686;SDS011;7431;49.440;11.084;2023-07-09T14:37:45;4.20;;;3.10;;
14686;SDS011;7431;49.440;11.084;2023-07-09T14:40:12;5.13;;;3.00;;
14686;SDS011;7431;49.440;11.084;2023-07-09T14:42:38;3.75;;;3.10;;
14686;SDS011;7431;49.440;11.084;2023-07-09T14:47:42;3.72;;;3.40;;
14686;SDS011;7431;49.440;11.084;2023-07-09T14:50:09;4.47;;;3.25;;
14686;SDS011;7431;49.440;11.084;2023-07-09T14:52:35;4.85;;;3.35;;
14686;SDS011;7431;49.440;11.084;2023-07-09T14:55:01;4.38;;;3.38;;
14686;SDS011;7431;49.440;11.084;2023-07-09T14:57:28;4.93;;;3.47;;
14686;SDS011;7431;49.440;11.084;2023-07-09T14:59:55;3.42;;;2.83;;
14686;SDS011;7431;49.440;11.084;2023-07-09T15:04:47;4.55;;;3.42;;
14686;SDS011;7431;49.440;11.084;2023-07-09T15:07:14;4.78;;;3.80;;
14686;SDS011;7431;49.440;11.084;2023-07-09T15:09:40;3.80;;;3.22;;
14686;SDS011;7431;49.440;11.084;2023-07-09T15:12:16;4.25;;;3.78;;
14686;SDS011;7431;49.440;11.084;2023-07-09T15:14:42;7.22;;;4.63;;
14686;SDS011;7431;49.440;11.084;2023-07-09T15:17:12;4.72;;;3.97;;
14686;SDS011;7431;49.440;11.084;2023-07-09T15:19:38;4.20;;;3.10;;
14686;SDS011;7431;49.440;11.084;2023-07-09T15:22:04;5.57;;;3.88;;
14686;SDS011;7431;49.440;11.084;2023-07-09T15:24:34;4.15;;;3.25;;
14686;SDS011;7431;49.440;11.084;2023-07-09T15:27:00;4.93;;;3.33;;
14686;SDS011;7431;49.440;11.084;2023-07-09T15:29:27;4.13;;;3.72;;
14686;SDS011;7431;49.440;11.084;2023-07-09T15:31:54;6.85;;;4.50;;
14686;SDS011;7431;49.440;11.084;2023-07-09T15:34:20;4.03;;;3.38;;
14686;SDS011;7431;49.440;11.084;2023-07-09T15:36:50;5.97;;;3.80;;
14686;SDS011;7431;49.440;11.084;2023-07-09T15:39:17;6.43;;;3.28;;